MV Causeway Supplier — ZR2426 — position and weather

sailwx.info

Track history (hours):
 
Tides and Currents Weather Stations Pressure Air Temp Water Temp Dewpoint Dewpoint Depression Visibility Wind Speed Wind Dir Waves Ship Positions

MV Causeway Supplier

Last reported at 2017-May-11 20:28 UTC. Time now 2017-Jun-26 12:08 UTC.
Position S 29°54' E 031°00'.
Warning: this ship's position is 45 days out of date.

Length 22 m; draft 2.7 m.

Type: . MMSI: 601041200.

Date/timePositionNaut miles runAvg speedWind from/ knotsBaromVisibWave heightAir tempDewpointWater temp
2017-May-11 20:28S 29°54' E 031°00'0 0.0
2017-May-11 20:00S 29°54' E 031°00'0 0.0
2017-May-11 19:28S 29°54' E 031°00'0 0.0
2017-May-11 18:59S 29°54' E 031°00'0 0.0
2017-May-11 18:30S 29°54' E 031°00'0 0.0
2017-May-11 18:00S 29°54' E 031°00'0 0.0
2017-May-11 17:28S 29°54' E 031°00'0 0.0
2017-May-11 17:00S 29°54' E 031°00'0 0.0
2017-May-11 16:26S 29°54' E 031°00'0 0.0
2017-May-11 15:59S 29°54' E 031°00'0 0.0
2017-May-11 15:28S 29°54' E 031°00'0 0.0
2017-May-11 15:00S 29°54' E 031°00'0 0.0
2017-May-11 14:00S 29°54' E 031°00'0 0.0
2017-May-11 13:30S 29°54' E 031°00'0 0.0
2017-May-11 13:00S 29°54' E 031°00'0 0.0
2017-May-11 12:30S 29°54' E 031°00'0 0.0
2017-May-11 12:00S 29°54' E 031°00'0 0.0
2017-May-11 11:30S 29°54' E 031°00'0 0.0
2017-May-11 11:00S 29°54' E 031°00'0 0.0
2017-May-11 10:30S 29°54' E 031°00'0 0.0
2017-May-11 10:00S 29°54' E 031°00'0 0.0
2017-May-11 09:30S 29°54' E 031°00'0 0.0
2017-May-11 09:00S 29°54' E 031°00'0 0.0
2017-May-11 08:30S 29°54' E 031°00'0 0.0
2017-May-11 08:00S 29°54' E 031°00'0 0.0
2017-May-11 07:30S 29°54' E 031°00'0 0.0
2017-May-11 07:00S 29°54' E 031°00'0 0.0
2017-May-11 06:30S 29°54' E 031°00'0 0.0
2017-May-11 06:00S 29°54' E 031°00'0 0.0
2017-May-11 05:30S 29°54' E 031°00'0 0.0
2017-May-11 05:00S 29°54' E 031°00'0 0.0
2017-May-11 04:30S 29°54' E 031°00'0 0.0
2017-May-11 04:00S 29°54' E 031°00'0 0.0
2017-May-11 03:30S 29°54' E 031°00'0 0.0
2017-May-11 03:00S 29°54' E 031°00'0 0.0
2017-May-11 02:30S 29°54' E 031°00'0 0.0
2017-May-11 02:00S 29°54' E 031°00'0 0.0
2017-May-11 01:30S 29°54' E 031°00'0 0.0
2017-May-11 01:00S 29°54' E 031°00'0 0.0
2017-May-11 00:30S 29°54' E 031°00'0 0.0
2017-May-11 00:00S 29°54' E 031°00'0 0.0
2017-May-10 23:28S 29°54' E 031°00'0 0.0
2017-May-10 23:00S 29°54' E 031°00'0 0.0
2017-May-10 22:30S 29°54' E 031°00'0 0.0
2017-May-10 22:00S 29°54' E 031°00'0 0.0
2017-May-10 21:30S 29°54' E 031°00'0 0.0
2017-May-10 21:00S 29°54' E 031°00'0 0.0
2017-May-10 20:30S 29°54' E 031°00'0 0.0
2017-May-10 20:00S 29°54' E 031°00'0 0.0
2017-May-10 19:30S 29°54' E 031°00'0 0.0
2017-May-10 19:00S 29°54' E 031°00'0 0.0
2017-May-10 18:29S 29°54' E 031°00'0 0.0
2017-May-10 18:00S 29°54' E 031°00'0 0.0
2017-May-10 17:30S 29°54' E 031°00'0 0.0
2017-May-10 16:59S 29°54' E 031°00'0 0.0
2017-May-10 16:30S 29°54' E 031°00'0 0.0
2017-May-10 16:00S 29°54' E 031°00'0 0.0
2017-May-10 15:30S 29°54' E 031°00'0 0.0
2017-May-10 15:00S 29°54' E 031°00'0 0.0
2017-May-10 14:30S 29°54' E 031°00'0 0.0
2017-May-10 13:30S 29°54' E 031°00'0 0.0
2017-May-10 13:00S 29°54' E 031°00'2 3.9
2017-May-10 12:30S 29°52' E 031°01'2 4.3
2017-May-10 12:01S 29°52' E 031°03'2 3.3
2017-May-10 11:30S 29°50' E 031°04'2 4.8
2017-May-10 11:00S 29°48' E 031°05'4 8.8
2017-May-10 10:30S 29°44' E 031°08'4 8.6
2017-May-10 10:00S 29°41' E 031°11'4 8.7
2017-May-10 09:30S 29°39' E 031°16'4 8.6
2017-May-10 09:00S 29°37' E 031°20'4 8.5
2017-May-10 08:30S 29°35' E 031°24'4 8.4
2017-May-10 08:00S 29°33' E 031°28'4 8.4
2017-May-10 07:30S 29°31' E 031°33'4 8.4
2017-May-10 07:00S 29°29' E 031°37'  
Track history (hours):
 
Tides and Currents Weather Stations Pressure Air Temp Water Temp Dewpoint Dewpoint Depression Visibility Wind Speed Wind Dir Waves Ship Positions

MV Causeway Supplier

Last reported at 2017-May-11 20:28 UTC. Time now 2017-Jun-26 12:08 UTC.
Position S 29°54' E 031°00'.
Warning: this ship's position is 45 days out of date.

Length 22 m; draft 2.7 m.

Type: . MMSI: 601041200.

Date/timePositionNaut miles runAvg speedWind from/ knotsBaromVisibWave heightAir tempDewpointWater temp
2017-May-11 20:28S 29°54' E 031°00'0 0.0
2017-May-11 20:00S 29°54' E 031°00'0 0.0
2017-May-11 19:28S 29°54' E 031°00'0 0.0
2017-May-11 18:59S 29°54' E 031°00'0 0.0
2017-May-11 18:30S 29°54' E 031°00'0 0.0
2017-May-11 18:00S 29°54' E 031°00'0 0.0
2017-May-11 17:28S 29°54' E 031°00'0 0.0
2017-May-11 17:00S 29°54' E 031°00'0 0.0
2017-May-11 16:26S 29°54' E 031°00'0 0.0
2017-May-11 15:59S 29°54' E 031°00'0 0.0
2017-May-11 15:28S 29°54' E 031°00'0 0.0
2017-May-11 15:00S 29°54' E 031°00'0 0.0
2017-May-11 14:00S 29°54' E 031°00'0 0.0
2017-May-11 13:30S 29°54' E 031°00'0 0.0
2017-May-11 13:00S 29°54' E 031°00'0 0.0
2017-May-11 12:30S 29°54' E 031°00'0 0.0
2017-May-11 12:00S 29°54' E 031°00'0 0.0
2017-May-11 11:30S 29°54' E 031°00'0 0.0
2017-May-11 11:00S 29°54' E 031°00'0 0.0
2017-May-11 10:30S 29°54' E 031°00'0 0.0
2017-May-11 10:00S 29°54' E 031°00'0 0.0
2017-May-11 09:30S 29°54' E 031°00'0 0.0
2017-May-11 09:00S 29°54' E 031°00'0 0.0
2017-May-11 08:30S 29°54' E 031°00'0 0.0
2017-May-11 08:00S 29°54' E 031°00'0 0.0
2017-May-11 07:30S 29°54' E 031°00'0 0.0
2017-May-11 07:00S 29°54' E 031°00'0 0.0
2017-May-11 06:30S 29°54' E 031°00'0 0.0
2017-May-11 06:00S 29°54' E 031°00'0 0.0
2017-May-11 05:30S 29°54' E 031°00'0 0.0
2017-May-11 05:00S 29°54' E 031°00'0 0.0
2017-May-11 04:30S 29°54' E 031°00'0 0.0
2017-May-11 04:00S 29°54' E 031°00'0 0.0
2017-May-11 03:30S 29°54' E 031°00'0 0.0
2017-May-11 03:00S 29°54' E 031°00'0 0.0
2017-May-11 02:30S 29°54' E 031°00'0 0.0
2017-May-11 02:00S 29°54' E 031°00'0 0.0
2017-May-11 01:30S 29°54' E 031°00'0 0.0
2017-May-11 01:00S 29°54' E 031°00'0 0.0
2017-May-11 00:30S 29°54' E 031°00'0 0.0
2017-May-11 00:00S 29°54' E 031°00'0 0.0
2017-May-10 23:28S 29°54' E 031°00'0 0.0
2017-May-10 23:00S 29°54' E 031°00'0 0.0
2017-May-10 22:30S 29°54' E 031°00'0 0.0
2017-May-10 22:00S 29°54' E 031°00'0 0.0
2017-May-10 21:30S 29°54' E 031°00'0 0.0
2017-May-10 21:00S 29°54' E 031°00'0 0.0
2017-May-10 20:30S 29°54' E 031°00'0 0.0
2017-May-10 20:00S 29°54' E 031°00'0 0.0
2017-May-10 19:30S 29°54' E 031°00'0 0.0
2017-May-10 19:00S 29°54' E 031°00'0 0.0
2017-May-10 18:29S 29°54' E 031°00'0 0.0
2017-May-10 18:00S 29°54' E 031°00'0 0.0
2017-May-10 17:30S 29°54' E 031°00'0 0.0
2017-May-10 16:59S 29°54' E 031°00'0 0.0
2017-May-10 16:30S 29°54' E 031°00'0 0.0
2017-May-10 16:00S 29°54' E 031°00'0 0.0
2017-May-10 15:30S 29°54' E 031°00'0 0.0
2017-May-10 15:00S 29°54' E 031°00'0 0.0
2017-May-10 14:30S 29°54' E 031°00'0 0.0
2017-May-10 13:30S 29°54' E 031°00'0 0.0
2017-May-10 13:00S 29°54' E 031°00'2 3.9
2017-May-10 12:30S 29°52' E 031°01'2 4.3
2017-May-10 12:01S 29°52' E 031°03'2 3.3
2017-May-10 11:30S 29°50' E 031°04'2 4.8
2017-May-10 11:00S 29°48' E 031°05'4 8.8
2017-May-10 10:30S 29°44' E 031°08'4 8.6
2017-May-10 10:00S 29°41' E 031°11'4 8.7
2017-May-10 09:30S 29°39' E 031°16'4 8.6
2017-May-10 09:00S 29°37' E 031°20'4 8.5
2017-May-10 08:30S 29°35' E 031°24'4 8.4
2017-May-10 08:00S 29°33' E 031°28'4 8.4
2017-May-10 07:30S 29°31' E 031°33'4 8.4
2017-May-10 07:00S 29°29' E 031°37'  

Dump ship's entire track history